Time;durP1;ratioP1;P1;durP2;ratioP2;P2;SDS_P1;SDS_P2;PMS_P1;PMS_P2;Temp;Humidity;BMP_temperature;BMP_pressure;BME280_temperature;BME280_humidity;BME280_pressure;Samples;Min_cycle;Max_cycle;Signal;HPM_P1;HPM_P2
2023/04/10 00:02:08;;;;;;;389.83;226.07;;;;;;;;;;6142310;23;20731;-77
2023/04/10 00:04:34;;;;;;;398.25;233.13;;;;;;;;;;6168067;23;20103;-77
2023/04/10 00:07:00;;;;;;;393.63;224.15;;;;;;;;;;6167261;23;20111;-76
2023/04/10 00:09:27;;;;;;;398.30;229.88;;;;;;;;;;6169622;23;20020;-77
2023/04/10 00:11:55;;;;;;;382.38;222.07;;;;;;;;;;6167606;23;20020;-81
2023/04/10 00:14:22;;;;;;;384.77;219.48;;;;;;;;;;6168532;23;20024;-81
2023/04/10 00:16:51;;;;;;;383.77;221.35;;;;;;;;;;6167204;23;20029;-80
2023/04/10 00:19:17;;;;;;;388.63;225.43;;;;;;;;;;6167396;23;20495;-81
2023/04/10 00:21:43;;;;;;;394.75;225.88;;;;;;;;;;6166730;23;20107;-80
2023/04/10 00:24:10;;;;;;;4.47;1.95;;;;;;;;;;6167135;23;20394;-80
2023/04/10 00:26:36;;;;;;;0.10;0.10;;;;;;;;;;6167141;23;20310;-80
2023/04/10 00:29:02;;;;;;;0.20;0.20;;;;;;;;;;6168036;23;20088;-80
2023/04/10 00:31:29;;;;;;;0.40;0.40;;;;;;;;;;6167296;23;20020;-79
2023/04/10 00:33:55;;;;;;;2.20;2.05;;;;;;;;;;6167748;23;20021;-80
2023/04/10 00:36:21;;;;;;;0.45;0.45;;;;;;;;;;6167694;23;20024;-81
2023/04/10 00:38:48;;;;;;;0.10;0.10;;;;;;;;;;6167748;23;20100;-80
2023/04/10 00:41:14;;;;;;;1.38;1.27;;;;;;;;;;6165871;23;20020;-80
2023/04/10 00:43:40;;;;;;;5.78;3.30;;;;;;;;;;6169093;23;20017;-80
2023/04/10 00:46:06;;;;;;;0.47;0.47;;;;;;;;;;6167411;23;20561;-80
2023/04/10 00:48:33;;;;;;;1.15;1.13;;;;;;;;;;6166649;23;20064;-81
2023/04/10 00:51:00;;;;;;;0.28;0.28;;;;;;;;;;6166677;23;20118;-76
2023/04/10 00:53:26;;;;;;;0.10;0.10;;;;;;;;;;6169043;23;20017;-75
2023/04/10 00:55:52;;;;;;;3.13;2.13;;;;;;;;;;6169264;23;20083;-75
2023/04/10 00:58:18;;;;;;;0.10;0.10;;;;;;;;;;6168516;23;20053;-75
2023/04/10 01:00:44;;;;;;;0.13;0.13;;;;;;;;;;6165737;23;20489;-75
2023/04/10 01:03:11;;;;;;;0.32;0.32;;;;;;;;;;6166143;23;20025;-75
2023/04/10 01:05:51;;;;;;;0.50;0.50;;;;;;;;;;6166970;23;20033;-75
2023/04/10 01:08:24;;;;;;;0.80;0.80;;;;;;;;;;6167196;23;20032;-80
2023/04/10 01:10:56;;;;;;;0.22;0.22;;;;;;;;;;6166827;23;20021;-80
2023/04/10 01:13:22;;;;;;;0.75;0.75;;;;;;;;;;6140729;23;20021;-80
2023/04/10 01:16:02;;;;;;;0.13;0.13;;;;;;;;;;6166784;23;20029;-79
2023/04/10 01:18:28;;;;;;;5.60;3.13;;;;;;;;;;6169280;23;20025;-80
2023/04/10 01:20:54;;;;;;;2.58;1.65;;;;;;;;;;6169112;23;20079;-80
2023/04/10 01:23:20;;;;;;;0.63;0.63;;;;;;;;;;6168616;23;20354;-80
2023/04/10 01:25:53;;;;;;;1.30;1.20;;;;;;;;;;6169134;23;20028;-80
2023/04/10 01:28:22;;;;;;;0.60;0.60;;;;;;;;;;6169349;23;20071;-78
2023/04/10 01:30:50;;;;;;;0.40;0.40;;;;;;;;;;6169488;23;20025;-78
2023/04/10 01:33:18;;;;;;;4.97;2.80;;;;;;;;;;6169895;23;20059;-79
2023/04/10 01:35:50;;;;;;;0.10;0.10;;;;;;;;;;6168626;23;20017;-79
2023/04/10 01:38:17;;;;;;;1.85;1.23;;;;;;;;;;6168274;23;20020;-78
2023/04/10 01:40:48;;;;;;;1.92;1.83;;;;;;;;;;6169143;23;20079;-79
2023/04/10 01:43:16;;;;;;;0.57;0.57;;;;;;;;;;6167136;23;20403;-78
2023/04/10 01:45:42;;;;;;;0.57;0.43;;;;;;;;;;6166396;23;20347;-79
2023/04/10 01:48:09;;;;;;;0.63;0.63;;;;;;;;;;6167520;23;20017;-79
2023/04/10 01:50:35;;;;;;;1.55;1.45;;;;;;;;;;6166620;23;20395;-77
2023/04/10 01:53:02;;;;;;;0.55;0.55;;;;;;;;;;6165551;23;20071;-79
2023/04/10 01:55:29;;;;;;;0.20;0.20;;;;;;;;;;6168210;23;20121;-78
2023/04/10 01:57:55;;;;;;;0.32;0.32;;;;;;;;;;6167454;23;20017;-78
2023/04/10 02:00:22;;;;;;;2.35;2.17;;;;;;;;;;6169659;23;20180;-77
2023/04/10 02:02:48;;;;;;;0.20;0.20;;;;;;;;;;6168401;23;20459;-78
2023/04/10 02:05:15;;;;;;;0.40;0.40;;;;;;;;;;6168584;23;20017;-78
2023/04/10 02:07:41;;;;;;;0.20;0.20;;;;;;;;;;6168211;23;20031;-80
2023/04/10 02:10:12;;;;;;;1.13;1.13;;;;;;;;;;6169940;23;20025;-80
2023/04/10 02:12:46;;;;;;;0.35;0.35;;;;;;;;;;6168421;23;20083;-79
2023/04/10 02:15:12;;;;;;;0.43;0.43;;;;;;;;;;6168120;23;20021;-79
2023/04/10 02:17:39;;;;;;;2.20;1.65;;;;;;;;;;6168668;23;20051;-79
2023/04/10 02:20:07;;;;;;;1.23;1.23;;;;;;;;;;6168953;23;20032;-79
2023/04/10 02:22:34;;;;;;;1.80;1.63;;;;;;;;;;6169193;23;20348;-80
2023/04/10 02:25:00;;;;;;;10.23;2.20;;;;;;;;;;6169050;23;20108;-79
2023/04/10 02:27:27;;;;;;;0.55;0.55;;;;;;;;;;6167848;23;20204;-81
2023/04/10 02:29:53;;;;;;;0.95;0.95;;;;;;;;;;6168961;23;20021;-79
2023/04/10 02:32:19;;;;;;;0.98;0.95;;;;;;;;;;6169442;23;20023;-79
2023/04/10 02:34:45;;;;;;;5.07;4.25;;;;;;;;;;6170587;23;20028;-80
2023/04/10 02:37:11;;;;;;;2.28;2.08;;;;;;;;;;6170281;23;20020;-79
2023/04/10 02:39:37;;;;;;;1.40;0.70;;;;;;;;;;6146105;23;20009;-79
2023/04/10 02:42:03;;;;;;;0.52;0.52;;;;;;;;;;6170130;23;20445;-79
2023/04/10 02:44:30;;;;;;;5.97;3.08;;;;;;;;;;6170659;23;20083;-75
2023/04/10 02:46:56;;;;;;;4.32;2.15;;;;;;;;;;6169607;23;20017;-75
2023/04/10 02:49:22;;;;;;;1.63;1.52;;;;;;;;;;6169078;23;20020;-74
2023/04/10 02:51:48;;;;;;;0.73;0.73;;;;;;;;;;6171163;23;20078;-74
2023/04/10 02:54:14;;;;;;;3.80;2.15;;;;;;;;;;6145455;23;20053;-75
2023/04/10 02:56:40;;;;;;;0.30;0.30;;;;;;;;;;6170314;23;20119;-75
2023/04/10 02:59:06;;;;;;;1.60;1.50;;;;;;;;;;6168196;23;20021;-74
2023/04/10 03:01:33;;;;;;;1.08;1.02;;;;;;;;;;6169084;23;20040;-76
2023/04/10 03:03:59;;;;;;;1.75;1.65;;;;;;;;;;6169941;23;20029;-79
2023/04/10 03:06:26;;;;;;;4.43;2.85;;;;;;;;;;6146076;23;20027;-79
2023/04/10 03:08:52;;;;;;;0.63;0.63;;;;;;;;;;6169978;23;20025;-79
2023/04/10 03:11:18;;;;;;;0.73;0.73;;;;;;;;;;6170756;23;20357;-78
2023/04/10 03:13:44;;;;;;;0.20;0.20;;;;;;;;;;6171947;23;20440;-79
2023/04/10 03:16:10;;;;;;;0.93;0.93;;;;;;;;;;6168839;23;20480;-78
2023/04/10 03:18:36;;;;;;;8.77;3.50;;;;;;;;;;6169010;23;20467;-78
2023/04/10 03:21:02;;;;;;;1.20;1.10;;;;;;;;;;6170990;23;20111;-78
2023/04/10 03:23:28;;;;;;;1.83;1.77;;;;;;;;;;6169970;23;20693;-78
2023/04/10 03:25:55;;;;;;;0.65;0.65;;;;;;;;;;6169280;23;20136;-78
2023/04/10 03:28:21;;;;;;;3.20;2.50;;;;;;;;;;6169247;23;20143;-77
2023/04/10 03:30:47;;;;;;;0.82;0.82;;;;;;;;;;6170028;23;20040;-79
2023/04/10 03:33:14;;;;;;;1.38;1.35;;;;;;;;;;6145167;23;20019;-79
2023/04/10 03:35:40;;;;;;;1.85;0.52;;;;;;;;;;6169883;23;20021;-78
2023/04/10 03:38:07;;;;;;;0.20;0.20;;;;;;;;;;6169981;23;20021;-79
2023/04/10 03:40:33;;;;;;;0.10;0.10;;;;;;;;;;6169888;23;20060;-78
2023/04/10 03:42:59;;;;;;;1.75;1.65;;;;;;;;;;6169502;23;20107;-75
2023/04/10 03:45:25;;;;;;;1.98;1.65;;;;;;;;;;6169901;23;20020;-76
2023/04/10 03:47:52;;;;;;;3.38;3.08;;;;;;;;;;6170766;23;20419;-75
2023/04/10 03:50:18;;;;;;;0.30;0.30;;;;;;;;;;6169454;23;20029;-76
2023/04/10 03:52:44;;;;;;;4.40;1.23;;;;;;;;;;6169737;23;20413;-76
2023/04/10 03:55:10;;;;;;;3.13;2.92;;;;;;;;;;6168841;23;20017;-75
2023/04/10 03:57:36;;;;;;;1.02;1.02;;;;;;;;;;6169436;23;20021;-75
2023/04/10 04:00:04;;;;;;;1.75;0.68;;;;;;;;;;6144396;23;20100;-76
2023/04/10 04:02:30;;;;;;;0.88;0.88;;;;;;;;;;6167267;23;20032;-76
2023/04/10 04:04:56;;;;;;;0.73;0.68;;;;;;;;;;6143918;23;20021;-75
2023/04/10 04:07:22;;;;;;;1.05;1.05;;;;;;;;;;6171162;23;20020;-75
2023/04/10 04:09:48;;;;;;;3.63;3.42;;;;;;;;;;6166385;23;20029;-76
2023/04/10 04:12:14;;;;;;;1.40;1.23;;;;;;;;;;6167763;23;20024;-75
2023/04/10 04:14:42;;;;;;;3.22;1.95;;;;;;;;;;6169124;23;20496;-76
2023/04/10 04:17:08;;;;;;;0.95;0.95;;;;;;;;;;6169671;23;20033;-76
2023/04/10 04:19:34;;;;;;;0.38;0.38;;;;;;;;;;6144710;23;20021;-76
2023/04/10 04:22:00;;;;;;;3.92;3.63;;;;;;;;;;6144143;23;20096;-75
2023/04/10 04:24:26;;;;;;;0.70;0.70;;;;;;;;;;6168888;23;20032;-76
2023/04/10 04:26:52;;;;;;;0.38;0.30;;;;;;;;;;6169473;23;20069;-75
2023/04/10 04:29:19;;;;;;;0.93;0.93;;;;;;;;;;6167999;23;20093;-76
2023/04/10 04:31:45;;;;;;;1.30;1.20;;;;;;;;;;6169222;23;20021;-76
2023/04/10 04:34:11;;;;;;;1.00;1.00;;;;;;;;;;6169336;23;20057;-76
2023/04/10 04:36:37;;;;;;;1.50;1.40;;;;;;;;;;6169180;23;20055;-76
2023/04/10 04:39:03;;;;;;;2.38;2.03;;;;;;;;;;6169127;23;20017;-77
2023/04/10 04:41:31;;;;;;;0.88;0.85;;;;;;;;;;6171197;23;20021;-75
2023/04/10 04:43:57;;;;;;;2.90;2.38;;;;;;;;;;6170496;23;20012;-75
2023/04/10 04:46:23;;;;;;;0.90;0.90;;;;;;;;;;6170695;23;20039;-74
2023/04/10 04:48:49;;;;;;;0.65;0.65;;;;;;;;;;6168536;23;20518;-75
2023/04/10 04:51:15;;;;;;;0.95;0.90;;;;;;;;;;6169756;23;20013;-75
2023/04/10 04:53:41;;;;;;;1.25;1.25;;;;;;;;;;6168212;23;20048;-76
2023/04/10 04:56:08;;;;;;;0.25;0.25;;;;;;;;;;6168988;23;20028;-76
2023/04/10 04:58:34;;;;;;;0.35;0.35;;;;;;;;;;6168674;23;20024;-75
2023/04/10 05:01:00;;;;;;;1.65;0.82;;;;;;;;;;6144661;23;20020;-76
2023/04/10 05:03:29;;;;;;;1.52;1.40;;;;;;;;;;6168603;23;20025;-76
2023/04/10 05:05:55;;;;;;;0.40;0.40;;;;;;;;;;6169367;23;20084;-76
2023/04/10 05:08:21;;;;;;;0.65;0.65;;;;;;;;;;6168597;23;20120;-75
2023/04/10 05:10:47;;;;;;;0.68;0.68;;;;;;;;;;6170931;23;20471;-75
2023/04/10 05:13:16;;;;;;;0.50;0.50;;;;;;;;;;6166847;23;20013;-76
2023/04/10 05:15:42;;;;;;;0.52;0.52;;;;;;;;;;6169825;23;20398;-76
2023/04/10 05:18:08;;;;;;;4.40;2.22;;;;;;;;;;6169626;23;20040;-76
2023/04/10 05:20:35;;;;;;;0.20;0.20;;;;;;;;;;6168644;23;20017;-76
2023/04/10 05:23:01;;;;;;;0.93;0.93;;;;;;;;;;6169083;23;20028;-75
2023/04/10 05:25:27;;;;;;;0.93;0.93;;;;;;;;;;6168307;23;20036;-76
2023/04/10 05:27:53;;;;;;;1.95;1.48;;;;;;;;;;6143803;23;20766;-76
2023/04/10 05:30:19;;;;;;;1.05;1.05;;;;;;;;;;6169218;23;20400;-76
2023/04/10 05:32:45;;;;;;;3.00;1.75;;;;;;;;;;6168907;23;20017;-76
2023/04/10 05:35:11;;;;;;;0.20;0.20;;;;;;;;;;6168584;23;20413;-77
2023/04/10 05:37:37;;;;;;;2.95;1.38;;;;;;;;;;6169133;23;20025;-75
2023/04/10 05:40:04;;;;;;;1.38;1.27;;;;;;;;;;6170171;23;20029;-76
2023/04/10 05:42:30;;;;;;;2.50;2.40;;;;;;;;;;6168498;23;20021;-77
2023/04/10 05:44:56;;;;;;;2.17;2.08;;;;;;;;;;6167252;23;20459;-78
2023/04/10 05:47:22;;;;;;;1.45;1.42;;;;;;;;;;6143829;23;20025;-77
2023/04/10 05:49:48;;;;;;;0.43;0.43;;;;;;;;;;6168130;23;20025;-76
2023/04/10 05:52:14;;;;;;;4.75;3.15;;;;;;;;;;6169042;23;20028;-75
2023/04/10 05:54:40;;;;;;;0.40;0.40;;;;;;;;;;6167533;23;20830;-79
2023/04/10 05:57:06;;;;;;;1.42;1.38;;;;;;;;;;6170178;23;20012;-79
2023/04/10 05:59:32;;;;;;;9.77;1.38;;;;;;;;;;6168217;23;20067;-79
2023/04/10 06:01:58;;;;;;;3.05;2.75;;;;;;;;;;6170840;23;20028;-79
2023/04/10 06:04:25;;;;;;;1.83;1.73;;;;;;;;;;6142882;23;20024;-78
2023/04/10 06:06:51;;;;;;;1.90;1.63;;;;;;;;;;6168382;23;20021;-77
2023/04/10 06:09:17;;;;;;;0.80;0.80;;;;;;;;;;6167031;23;20017;-79
2023/04/10 06:11:43;;;;;;;1.30;1.23;;;;;;;;;;6169083;23;20021;-79
2023/04/10 06:14:09;;;;;;;0.35;0.35;;;;;;;;;;6168941;23;20258;-77
2023/04/10 06:16:35;;;;;;;4.50;1.75;;;;;;;;;;6169128;23;20126;-81
2023/04/10 06:19:01;;;;;;;0.17;0.17;;;;;;;;;;6168115;23;20017;-81
2023/04/10 06:21:27;;;;;;;0.68;0.68;;;;;;;;;;6168737;23;20052;-80
2023/04/10 06:23:53;;;;;;;1.65;1.55;;;;;;;;;;6168244;23;20083;-80
2023/04/10 06:26:20;;;;;;;0.43;0.43;;;;;;;;;;6144119;23;20063;-79
2023/04/10 06:28:46;;;;;;;0.28;0.28;;;;;;;;;;6144061;23;20013;-80
2023/04/10 06:31:12;;;;;;;1.48;1.23;;;;;;;;;;6143093;23;20146;-85
2023/04/10 06:33:38;;;;;;;3.70;3.47;;;;;;;;;;6142035;23;20029;-81
2023/04/10 06:36:05;;;;;;;1.60;1.15;;;;;;;;;;6141849;23;20021;-79
2023/04/10 06:38:32;;;;;;;0.98;0.85;;;;;;;;;;6142624;23;20021;-80
2023/04/10 06:40:59;;;;;;;15.25;3.80;;;;;;;;;;6143077;23;20044;-81
2023/04/10 06:43:26;;;;;;;3.10;1.55;;;;;;;;;;6143906;23;20104;-80
2023/04/10 06:45:52;;;;;;;0.63;0.63;;;;;;;;;;6143840;23;20013;-80
2023/04/10 06:48:18;;;;;;;3.03;2.75;;;;;;;;;;6142948;23;20043;-78
2023/04/10 06:50:45;;;;;;;1.35;1.27;;;;;;;;;;6143030;23;20823;-84
2023/04/10 06:53:11;;;;;;;0.70;0.60;;;;;;;;;;6139739;23;20377;-84
2023/04/10 06:55:37;;;;;;;0.90;0.65;;;;;;;;;;6141660;23;20698;-84
2023/04/10 06:58:03;;;;;;;1.15;1.08;;;;;;;;;;6139771;23;20373;-81
2023/04/10 07:00:30;;;;;;;0.90;0.90;;;;;;;;;;6139966;23;20447;-80
2023/04/10 07:02:56;;;;;;;1.25;1.15;;;;;;;;;;6139680;23;21111;-81
2023/04/10 07:05:22;;;;;;;1.33;1.23;;;;;;;;;;6141352;23;20433;-85
2023/04/10 07:07:49;;;;;;;0.70;0.70;;;;;;;;;;6138535;23;20412;-80
2023/04/10 07:10:16;;;;;;;5.32;1.60;;;;;;;;;;6137366;23;20415;-78
2023/04/10 07:12:42;;;;;;;1.20;1.10;;;;;;;;;;6138476;23;20436;-81
2023/04/10 07:15:09;;;;;;;2.03;1.70;;;;;;;;;;6139611;23;20480;-80
2023/04/10 07:17:35;;;;;;;2.17;1.47;;;;;;;;;;6140302;23;20381;-80
2023/04/10 07:20:01;;;;;;;1.92;1.83;;;;;;;;;;6168602;23;20408;-79
2023/04/10 07:22:27;;;;;;;3.90;2.13;;;;;;;;;;6144485;23;20613;-78
2023/04/10 07:24:54;;;;;;;0.90;0.90;;;;;;;;;;6150521;23;20401;-81
2023/04/10 07:27:20;;;;;;;0.70;0.70;;;;;;;;;;6167603;23;20401;-80
2023/04/10 07:29:46;;;;;;;2.00;1.83;;;;;;;;;;6171483;23;20483;-83
2023/04/10 07:32:12;;;;;;;1.60;1.50;;;;;;;;;;6168781;23;20408;-85
2023/04/10 07:34:38;;;;;;;3.15;2.75;;;;;;;;;;6144178;23;20374;-75
2023/04/10 07:37:04;;;;;;;3.20;2.00;;;;;;;;;;6164326;23;20488;-82
2023/04/10 07:39:30;;;;;;;2.25;1.95;;;;;;;;;;6166605;23;20815;-78
2023/04/10 07:41:56;;;;;;;1.80;1.70;;;;;;;;;;6168569;23;20505;-78
2023/04/10 07:44:22;;;;;;;0.60;0.60;;;;;;;;;;6168665;23;20444;-77
2023/04/10 07:46:51;;;;;;;2.17;1.40;;;;;;;;;;6168601;23;20405;-77
2023/04/10 07:49:17;;;;;;;1.20;1.10;;;;;;;;;;6166865;23;20433;-77
2023/04/10 07:51:43;;;;;;;3.95;2.67;;;;;;;;;;6167745;23;20374;-77
2023/04/10 07:54:09;;;;;;;0.60;0.60;;;;;;;;;;6169397;23;20368;-76
2023/04/10 07:56:35;;;;;;;0.90;0.90;;;;;;;;;;6165447;23;20452;-75
2023/04/10 07:59:02;;;;;;;12.57;2.55;;;;;;;;;;6140954;23;20745;-77
2023/04/10 08:01:28;;;;;;;0.88;0.85;;;;;;;;;;6142420;23;20378;-77
2023/04/10 08:03:57;;;;;;;1.02;0.95;;;;;;;;;;6167918;23;21101;-77
2023/04/10 08:06:23;;;;;;;1.38;1.27;;;;;;;;;;6165811;23;20369;-76
2023/04/10 08:08:51;;;;;;;3.50;2.50;;;;;;;;;;6165873;23;20459;-83
2023/04/10 08:11:26;;;;;;;0.40;0.40;;;;;;;;;;6167919;23;20698;-83
2023/04/10 08:13:53;;;;;;;0.80;0.80;;;;;;;;;;6167105;23;20400;-82
2023/04/10 08:16:21;;;;;;;0.70;0.70;;;;;;;;;;6166300;23;20369;-82
2023/04/10 08:18:47;;;;;;;0.90;0.90;;;;;;;;;;6166824;23;20486;-86
2023/04/10 08:21:13;;;;;;;0.73;0.73;;;;;;;;;;6166367;23;20690;-80
2023/04/10 08:23:39;;;;;;;1.02;1.02;;;;;;;;;;6164561;23;20377;-80
2023/04/10 08:26:05;;;;;;;5.30;1.25;;;;;;;;;;6169146;23;20397;-86
2023/04/10 08:28:31;;;;;;;2.70;1.60;;;;;;;;;;6167544;23;20376;-82
2023/04/10 08:30:57;;;;;;;1.48;1.23;;;;;;;;;;6138872;23;20620;-79
2023/04/10 08:33:24;;;;;;;1.35;1.30;;;;;;;;;;6164209;23;20980;-81
2023/04/10 08:35:50;;;;;;;2.13;1.90;;;;;;;;;;6164270;23;20899;-81
2023/04/10 08:38:16;;;;;;;0.55;0.55;;;;;;;;;;6165416;23;20365;-80
2023/04/10 08:40:43;;;;;;;3.40;2.00;;;;;;;;;;6165728;23;20380;-81
2023/04/10 08:43:09;;;;;;;0.85;0.85;;;;;;;;;;6164649;23;20369;-79
2023/04/10 08:45:35;;;;;;;0.70;0.70;;;;;;;;;;6165475;23;20690;-80
2023/04/10 08:48:05;;;;;;;0.95;0.95;;;;;;;;;;6165793;23;20867;-77
2023/04/10 08:50:34;;;;;;;1.10;1.00;;;;;;;;;;6164822;23;20405;-78
2023/04/10 08:53:04;;;;;;;0.90;0.90;;;;;;;;;;6166989;23;20921;-80
2023/04/10 08:55:31;;;;;;;0.95;0.88;;;;;;;;;;6164957;23;20385;-77
2023/04/10 08:57:57;;;;;;;1.63;1.53;;;;;;;;;;6166299;23;20460;-79
2023/04/10 09:00:23;;;;;;;3.30;1.77;;;;;;;;;;6166895;23;20785;-80
2023/04/10 09:02:53;;;;;;;0.50;0.50;;;;;;;;;;6166560;23;20373;-75
2023/04/10 09:05:20;;;;;;;2.07;1.37;;;;;;;;;;6167689;23;20361;-77
2023/04/10 09:07:46;;;;;;;1.70;1.60;;;;;;;;;;6165722;23;20797;-75
2023/04/10 09:10:12;;;;;;;1.15;1.05;;;;;;;;;;6165949;23;20425;-75
2023/04/10 09:12:45;;;;;;;1.20;1.10;;;;;;;;;;6169364;23;21174;-78
2023/04/10 09:15:12;;;;;;;2.73;2.30;;;;;;;;;;6167912;23;20384;-76
2023/04/10 09:17:53;;;;;;;1.40;1.30;;;;;;;;;;6166420;23;20374;-76
2023/04/10 09:20:21;;;;;;;0.85;0.55;;;;;;;;;;6168710;23;20433;-74
2023/04/10 09:22:47;;;;;;;2.85;2.28;;;;;;;;;;6169511;23;20040;-74
2023/04/10 09:25:28;;;;;;;0.30;0.30;;;;;;;;;;6141651;23;20060;-75
2023/04/10 09:28:05;;;;;;;2.35;2.15;;;;;;;;;;6166773;23;20029;-75
2023/04/10 09:30:41;;;;;;;0.52;0.52;;;;;;;;;;6167134;23;20021;-76
2023/04/10 09:33:26;;;;;;;0.60;0.60;;;;;;;;;;6166190;23;20155;-74
2023/04/10 09:35:52;;;;;;;0.52;0.52;;;;;;;;;;6165576;23;20504;-77
2023/04/10 09:38:19;;;;;;;0.80;0.80;;;;;;;;;;6166443;23;20021;-77
2023/04/10 09:40:46;;;;;;;3.25;2.13;;;;;;;;;;6167733;23;20032;-77
2023/04/10 09:43:31;;;;;;;0.30;0.30;;;;;;;;;;6165648;23;20028;-78
2023/04/10 09:45:57;;;;;;;0.13;0.13;;;;;;;;;;6166577;23;20471;-77
2023/04/10 09:48:24;;;;;;;0.20;0.20;;;;;;;;;;6167796;23;20024;-80
2023/04/10 09:50:50;;;;;;;0.38;0.38;;;;;;;;;;6165910;23;20614;-79
2023/04/10 09:53:18;;;;;;;0.30;0.30;;;;;;;;;;6142143;23;20059;-80
2023/04/10 09:55:44;;;;;;;0.10;0.10;;;;;;;;;;6166295;23;20372;-77
2023/04/10 09:58:11;;;;;;;0.10;0.10;;;;;;;;;;6164463;23;20025;-76
2023/04/10 10:00:42;;;;;;;0.20;0.20;;;;;;;;;;6162471;23;20021;-81
2023/04/10 10:03:09;;;;;;;0.10;0.10;;;;;;;;;;6162558;23;20056;-77
2023/04/10 10:05:45;;;;;;;0.60;0.60;;;;;;;;;;6166079;23;20163;-82
2023/04/10 10:08:12;;;;;;;3.30;0.95;;;;;;;;;;6166519;23;20021;-84
2023/04/10 10:10:50;;;;;;;0.40;0.40;;;;;;;;;;6167538;23;20025;-83
2023/04/10 10:13:37;;;;;;;0.30;0.30;;;;;;;;;;6167463;23;20021;-84
2023/04/10 10:16:03;;;;;;;1.48;0.90;;;;;;;;;;6143490;23;20043;-82
2023/04/10 10:18:35;;;;;;;370.13;344.83;;;;;;;;;;6166439;23;20463;-83
2023/04/10 10:21:02;;;;;;;2.90;2.22;;;;;;;;;;6139745;23;20017;-80
2023/04/10 10:23:28;;;;;;;0.10;0.10;;;;;;;;;;6165255;23;20119;-84
2023/04/10 10:25:55;;;;;;;0.15;0.15;;;;;;;;;;6166588;23;20020;-80
2023/04/10 10:28:22;;;;;;;0.40;0.40;;;;;;;;;;6141197;23;20029;-78
2023/04/10 10:30:48;;;;;;;0.20;0.20;;;;;;;;;;6140192;23;20020;-80
2023/04/10 10:33:15;;;;;;;0.15;0.15;;;;;;;;;;6140295;23;20423;-78
2023/04/10 10:35:41;;;;;;;0.20;0.20;;;;;;;;;;6140214;23;20021;-79
2023/04/10 10:38:07;;;;;;;0.20;0.20;;;;;;;;;;6141562;23;20492;-78
2023/04/10 10:40:40;;;;;;;47.92;44.63;;;;;;;;;;6139264;23;20025;-76
2023/04/10 10:43:27;;;;;;;0.17;0.17;;;;;;;;;;6144210;23;20020;-77
2023/04/10 10:46:04;;;;;;;0.10;0.10;;;;;;;;;;6142712;23;20098;-77
2023/04/10 10:48:30;;;;;;;0.13;0.13;;;;;;;;;;6116468;23;20017;-78
2023/04/10 10:50:57;;;;;;;0.10;0.10;;;;;;;;;;6141731;23;20103;-76
2023/04/10 10:53:43;;;;;;;0.90;0.90;;;;;;;;;;6142565;23;20025;-78
2023/04/10 10:56:36;;;;;;;0.15;0.15;;;;;;;;;;6143104;23;20027;-80
2023/04/10 10:59:02;;;;;;;0.32;0.32;;;;;;;;;;6137644;23;20024;-82
2023/04/10 11:01:28;;;;;;;0.10;0.10;;;;;;;;;;6117132;23;20029;-91
2023/04/10 11:03:55;;;;;;;0.10;0.10;;;;;;;;;;6119048;23;20364;-88
2023/04/10 11:06:41;;;;;;;0.10;0.10;;;;;;;;;;6144733;23;20115;-85
2023/04/10 11:09:07;;;;;;;0.10;0.10;;;;;;;;;;6143831;23;20761;-83
2023/04/10 11:11:54;;;;;;;0.75;0.68;;;;;;;;;;6144484;23;20052;-85
2023/04/10 11:14:20;;;;;;;0.10;0.10;;;;;;;;;;6146176;23;20142;-80
2023/04/10 11:16:47;;;;;;;0.10;0.10;;;;;;;;;;6119138;23;20052;-87
2023/04/10 11:19:14;;;;;;;0.10;0.10;;;;;;;;;;6144592;23;20197;-76
2023/04/10 11:21:59;;;;;;;0.10;0.10;;;;;;;;;;6170668;23;20060;-76
2023/04/10 11:24:26;;;;;;;1.30;0.50;;;;;;;;;;6121017;23;20166;-76
2023/04/10 11:26:52;;;;;;;0.10;0.10;;;;;;;;;;6145314;23;20515;-76
2023/04/10 11:29:27;;;;;;;0.32;0.32;;;;;;;;;;6144348;23;20032;-77
2023/04/10 11:32:01;;;;;;;0.20;0.20;;;;;;;;;;6120524;23;20451;-77
2023/04/10 11:34:27;;;;;;;0.10;0.10;;;;;;;;;;6171665;23;20052;-76
2023/04/10 11:36:54;;;;;;;0.47;0.47;;;;;;;;;;6172044;23;20618;-76
2023/04/10 11:39:20;;;;;;;0.10;0.10;;;;;;;;;;6171237;23;20017;-76
2023/04/10 11:41:47;;;;;;;0.10;0.10;;;;;;;;;;6172544;23;20052;-78
2023/04/10 11:44:16;;;;;;;0.10;0.10;;;;;;;;;;6170900;23;20016;-78
2023/04/10 11:46:45;;;;;;;0.20;0.20;;;;;;;;;;6171837;23;20048;-78
2023/04/10 11:49:11;;;;;;;0.30;0.30;;;;;;;;;;6145009;23;20031;-78
2023/04/10 11:51:38;;;;;;;0.10;0.10;;;;;;;;;;6146029;23;20032;-78
2023/04/10 11:54:06;;;;;;;0.20;0.20;;;;;;;;;;6144172;23;20087;-78
2023/04/10 11:56:32;;;;;;;0.20;0.20;;;;;;;;;;6145842;23;20096;-78
2023/04/10 11:58:58;;;;;;;0.10;0.10;;;;;;;;;;6144814;23;20036;-77
2023/04/10 12:01:24;;;;;;;0.10;0.10;;;;;;;;;;6144714;23;20025;-78
2023/04/10 12:03:50;;;;;;;0.10;0.10;;;;;;;;;;6144353;23;20028;-77
2023/04/10 12:06:18;;;;;;;0.10;0.10;;;;;;;;;;6144932;23;20021;-78
2023/04/10 12:08:49;;;;;;;0.73;0.68;;;;;;;;;;6144361;23;20021;-78
2023/04/10 12:11:20;;;;;;;2.47;1.27;;;;;;;;;;6145919;23;20021;-77
2023/04/10 12:13:46;;;;;;;0.10;0.10;;;;;;;;;;6144988;23;20400;-78
2023/04/10 12:16:13;;;;;;;0.20;0.20;;;;;;;;;;6145096;23;20021;-77
2023/04/10 12:18:39;;;;;;;0.15;0.15;;;;;;;;;;6144987;23;20548;-78
2023/04/10 12:21:06;;;;;;;0.13;0.13;;;;;;;;;;6145385;23;20023;-78
2023/04/10 12:23:32;;;;;;;1.65;0.82;;;;;;;;;;6170962;23;20326;-78
2023/04/10 12:26:30;;;;;;;0.47;0.47;;;;;;;;;;6170885;23;20024;-77
2023/04/10 12:28:57;;;;;;;0.10;0.10;;;;;;;;;;6080499;23;20032;-77
2023/04/10 12:31:27;;;;;;;0.10;0.10;;;;;;;;;;6145426;23;20456;-78
2023/04/10 12:33:56;;;;;;;0.10;0.10;;;;;;;;;;6144776;23;20352;-77
2023/04/10 12:36:28;;;;;;;0.60;0.57;;;;;;;;;;6143879;23;20021;-77
2023/04/10 12:38:55;;;;;;;0.32;0.25;;;;;;;;;;6141312;23;20020;-82
2023/04/10 12:41:25;;;;;;;0.10;0.10;;;;;;;;;;6143589;23;20356;-80
2023/04/10 12:43:52;;;;;;;0.32;0.32;;;;;;;;;;6118626;23;20754;-79
2023/04/10 12:46:22;;;;;;;0.52;0.52;;;;;;;;;;6144423;23;20493;-79
2023/04/10 12:48:49;;;;;;;0.10;0.10;;;;;;;;;;6143489;23;20033;-81
2023/04/10 12:51:15;;;;;;;0.10;0.10;;;;;;;;;;6142588;23;20027;-79
2023/04/10 12:53:44;;;;;;;0.10;0.10;;;;;;;;;;6143535;23;20060;-80
2023/04/10 12:56:12;;;;;;;0.10;0.10;;;;;;;;;;6175217;23;20021;-82
2023/04/10 12:58:41;;;;;;;1.20;0.85;;;;;;;;;;6118660;23;20519;-84
2023/04/10 13:01:08;;;;;;;0.10;0.10;;;;;;;;;;6140485;23;20020;-78
2023/04/10 13:03:37;;;;;;;0.10;0.10;;;;;;;;;;6170712;23;20075;-79
2023/04/10 13:06:07;;;;;;;0.10;0.10;;;;;;;;;;6144839;23;20024;-79
2023/04/10 13:08:36;;;;;;;0.10;0.10;;;;;;;;;;6118250;23;20091;-77
2023/04/10 13:11:02;;;;;;;0.22;0.22;;;;;;;;;;6141623;23;20024;-80
2023/04/10 13:13:31;;;;;;;0.10;0.10;;;;;;;;;;6141958;23;20028;-77
2023/04/10 13:15:58;;;;;;;0.10;0.10;;;;;;;;;;6145281;23;20024;-79
2023/04/10 13:18:25;;;;;;;0.10;0.10;;;;;;;;;;6118994;23;20021;-81
2023/04/10 13:20:51;;;;;;;0.20;0.20;;;;;;;;;;6141804;23;20049;-78
2023/04/10 13:23:17;;;;;;;0.20;0.20;;;;;;;;;;6141466;23;20513;-77
2023/04/10 13:25:43;;;;;;;0.88;0.85;;;;;;;;;;6158268;23;20388;-78
2023/04/10 13:28:14;;;;;;;0.10;0.10;;;;;;;;;;6167607;23;20663;-83
2023/04/10 13:30:41;;;;;;;0.20;0.20;;;;;;;;;;6169716;23;20025;-80
2023/04/10 13:33:08;;;;;;;0.10;0.10;;;;;;;;;;6166659;23;20021;-81
2023/04/10 13:35:34;;;;;;;0.10;0.10;;;;;;;;;;6140713;23;20233;-81
2023/04/10 13:38:00;;;;;;;0.10;0.10;;;;;;;;;;6167135;23;20017;-77
2023/04/10 13:40:26;;;;;;;0.10;0.10;;;;;;;;;;6167815;23;20017;-73
2023/04/10 13:42:52;;;;;;;0.47;0.47;;;;;;;;;;6166585;23;20118;-82
2023/04/10 13:45:18;;;;;;;0.10;0.10;;;;;;;;;;6166021;23;20028;-77
2023/04/10 13:47:44;;;;;;;0.20;0.20;;;;;;;;;;6166195;23;20020;-82
2023/04/10 13:50:11;;;;;;;0.20;0.20;;;;;;;;;;6167717;23;20079;-77
2023/04/10 13:52:37;;;;;;;0.10;0.10;;;;;;;;;;6165722;23;20017;-77
2023/04/10 13:55:03;;;;;;;0.20;0.20;;;;;;;;;;6165136;23;20457;-78
2023/04/10 13:57:29;;;;;;;0.98;0.35;;;;;;;;;;6166639;23;20020;-78
2023/04/10 13:59:55;;;;;;;0.10;0.10;;;;;;;;;;6167060;23;20028;-75
2023/04/10 14:02:21;;;;;;;0.10;0.10;;;;;;;;;;6167458;23;20197;-73
2023/04/10 14:04:47;;;;;;;0.10;0.10;;;;;;;;;;6164642;23;20479;-78
2023/04/10 14:07:13;;;;;;;0.10;0.10;;;;;;;;;;6165890;23;20020;-78
2023/04/10 14:09:39;;;;;;;0.10;0.10;;;;;;;;;;6165727;23;20420;-78
2023/04/10 14:12:05;;;;;;;0.32;0.32;;;;;;;;;;6166438;23;20093;-79
2023/04/10 14:14:31;;;;;;;0.10;0.10;;;;;;;;;;6165183;23;20821;-79
2023/04/10 14:16:57;;;;;;;0.10;0.10;;;;;;;;;;6165715;23;20072;-93
2023/04/10 14:19:24;;;;;;;0.10;0.10;;;;;;;;;;6141524;23;20024;-84
2023/04/10 14:21:50;;;;;;;0.70;0.68;;;;;;;;;;6169351;23;20103;-84
2023/04/10 14:24:16;;;;;;;4.45;0.80;;;;;;;;;;6165431;23;20025;-80
2023/04/10 14:26:42;;;;;;;0.10;0.10;;;;;;;;;;6142544;23;20455;-80
2023/04/10 14:29:08;;;;;;;0.10;0.10;;;;;;;;;;6143521;23;20079;-80
2023/04/10 14:31:34;;;;;;;0.10;0.10;;;;;;;;;;6144086;23;20032;-80
2023/04/10 14:34:00;;;;;;;0.10;0.10;;;;;;;;;;6143192;23;20096;-79
2023/04/10 14:36:26;;;;;;;0.10;0.10;;;;;;;;;;6142863;23;20021;-79
2023/04/10 14:38:52;;;;;;;0.20;0.20;;;;;;;;;;6169798;23;20017;-79
2023/04/10 14:41:19;;;;;;;0.10;0.10;;;;;;;;;;6168915;23;20547;-78
2023/04/10 14:43:45;;;;;;;3.67;0.75;;;;;;;;;;6143559;23;20056;-81